Time;durP1;ratioP1;P1;durP2;ratioP2;P2;SDS_P1;SDS_P2;PMS_P1;PMS_P2;Temp;Humidity;BMP_temperature;BMP_pressure;BME280_temperature;BME280_humidity;BME280_pressure;Samples;Min_cycle;Max_cycle;Signal;HPM_P1;HPM_P2
2023/10/24 04:02:17;;;;;;;1.60;1.40;;;14.30;83.50;;;;;;5303557;23;20575;-74
2023/10/24 04:04:44;;;;;;;3.10;2.00;;;14.30;83.40;;;;;;4994837;28;20946;-74
2023/10/24 04:07:10;;;;;;;1.80;1.60;;;13.90;84.40;;;;;;4995134;28;20441;-75
2023/10/24 04:09:37;;;;;;;2.53;1.73;;;13.80;84.60;;;;;;4995105;28;20448;-74
2023/10/24 04:12:05;;;;;;;2.53;1.60;;;13.80;84.60;;;;;;4994865;28;20524;-74
2023/10/24 04:14:32;;;;;;;2.70;1.90;;;13.80;85.00;;;;;;4995358;28;20495;-74
2023/10/24 04:16:58;;;;;;;2.30;1.70;;;13.80;84.80;;;;;;4994875;28;20862;-75
2023/10/24 04:19:26;;;;;;;2.13;1.93;;;13.80;84.90;;;;;;4994832;28;20528;-75
2023/10/24 04:21:53;;;;;;;2.77;1.60;;;13.80;85.00;;;;;;4994779;28;20461;-75
2023/10/24 04:24:20;;;;;;;3.83;2.00;;;13.90;84.70;;;;;;4994779;28;20441;-74
2023/10/24 04:26:46;;;;;;;3.27;2.30;;;13.90;84.50;;;;;;4995235;28;20457;-74
2023/10/24 04:29:13;;;;;;;3.23;1.60;;;14.00;84.50;;;;;;4994942;28;20449;-74
2023/10/24 04:31:39;;;;;;;2.20;2.00;;;14.00;84.30;;;;;;4994456;28;21007;-75
2023/10/24 04:34:06;;;;;;;1.90;1.70;;;14.10;84.00;;;;;;4994779;28;20500;-74
2023/10/24 04:36:34;;;;;;;1.90;1.63;;;14.10;84.00;;;;;;4995156;28;20477;-74
2023/10/24 04:39:01;;;;;;;5.23;1.80;;;14.10;83.90;;;;;;4994848;28;20503;-74
2023/10/24 04:41:27;;;;;;;2.30;1.70;;;14.20;83.70;;;;;;4995515;28;20472;-74
2023/10/24 04:43:54;;;;;;;3.00;1.60;;;14.10;83.90;;;;;;4995071;28;20468;-74
2023/10/24 04:46:21;;;;;;;2.50;2.30;;;14.20;83.80;;;;;;4994945;28;20453;-74
2023/10/24 04:48:47;;;;;;;2.23;1.70;;;14.20;83.60;;;;;;4995065;28;20444;-74
2023/10/24 04:51:14;;;;;;;1.90;1.30;;;14.20;83.60;;;;;;4994931;28;20472;-74
2023/10/24 04:53:42;;;;;;;3.30;2.40;;;14.20;83.60;;;;;;4994772;28;20802;-75
2023/10/24 04:56:09;;;;;;;2.53;1.60;;;14.20;83.50;;;;;;4994862;28;20480;-74
2023/10/24 04:58:36;;;;;;;2.00;1.70;;;13.90;84.50;;;;;;4994725;28;20456;-74
2023/10/24 05:01:03;;;;;;;2.60;2.00;;;14.00;84.60;;;;;;4994200;28;20481;-74
2023/10/24 05:03:29;;;;;;;1.90;1.70;;;14.00;84.30;;;;;;4994582;28;20820;-74
2023/10/24 05:05:56;;;;;;;6.87;2.17;;;14.00;84.50;;;;;;4994819;28;20464;-75
2023/10/24 05:08:23;;;;;;;2.23;1.80;;;14.00;84.40;;;;;;4994609;28;20449;-75
2023/10/24 05:10:51;;;;;;;2.33;1.83;;;14.10;84.10;;;;;;4994495;28;20473;-75
2023/10/24 05:13:17;;;;;;;2.40;1.93;;;14.10;84.10;;;;;;4995278;28;20449;-74
2023/10/24 05:15:45;;;;;;;2.47;1.80;;;14.10;84.10;;;;;;4994529;28;20480;-74
2023/10/24 05:18:12;;;;;;;2.03;1.70;;;14.20;84.00;;;;;;4994631;28;20476;-74
2023/10/24 05:20:39;;;;;;;2.17;1.97;;;14.20;83.90;;;;;;4994464;28;20449;-74
2023/10/24 05:23:06;;;;;;;4.93;2.37;;;14.20;84.00;;;;;;4994476;28;20445;-74
2023/10/24 05:25:32;;;;;;;1.67;1.57;;;14.20;84.00;;;;;;4993906;28;20938;-74
2023/10/24 05:28:00;;;;;;;2.30;1.80;;;14.20;83.80;;;;;;4994191;28;20460;-74
2023/10/24 05:30:27;;;;;;;2.77;2.03;;;14.20;83.90;;;;;;4993745;28;20889;-74
2023/10/24 05:32:54;;;;;;;2.07;1.87;;;14.20;83.80;;;;;;4993935;28;20448;-74
2023/10/24 05:35:21;;;;;;;1.90;1.70;;;14.20;84.10;;;;;;4993825;28;20853;-75
2023/10/24 05:37:48;;;;;;;2.23;2.00;;;14.20;84.10;;;;;;4993923;28;20817;-74
2023/10/24 05:40:14;;;;;;;2.60;1.83;;;14.20;84.20;;;;;;4993548;28;20954;-74
2023/10/24 05:42:41;;;;;;;2.23;2.03;;;14.20;84.10;;;;;;4993586;28;20825;-74
2023/10/24 05:45:10;;;;;;;2.00;1.80;;;14.20;84.20;;;;;;4998210;28;20445;-74
2023/10/24 05:47:37;;;;;;;1.90;1.70;;;14.30;84.10;;;;;;4997653;28;20445;-74
2023/10/24 05:50:04;;;;;;;2.40;1.83;;;14.30;84.20;;;;;;4997895;28;20448;-74
2023/10/24 05:52:32;;;;;;;2.87;1.83;;;14.30;84.20;;;;;;4997587;28;20468;-75
2023/10/24 05:54:58;;;;;;;2.27;1.90;;;14.30;84.20;;;;;;4997154;28;20500;-74
2023/10/24 05:57:25;;;;;;;1.97;1.70;;;14.20;84.10;;;;;;4997627;28;20495;-74
2023/10/24 05:59:52;;;;;;;1.67;1.50;;;13.60;86.00;;;;;;4997383;28;20445;-74
2023/10/24 06:02:20;;;;;;;2.20;1.90;;;13.60;86.90;;;;;;4997167;28;20489;-75
2023/10/24 06:04:46;;;;;;;2.03;1.80;;;13.70;86.30;;;;;;4997209;28;21049;-74
2023/10/24 06:07:14;;;;;;;4.73;2.30;;;13.90;85.90;;;;;;4997483;28;20444;-74
2023/10/24 06:09:40;;;;;;;1.93;1.73;;;13.90;85.60;;;;;;4997564;28;20922;-74
2023/10/24 06:12:08;;;;;;;2.47;1.97;;;14.00;85.50;;;;;;4997225;28;21038;-74
2023/10/24 06:14:35;;;;;;;2.60;1.73;;;14.10;85.40;;;;;;4997499;28;20453;-75
2023/10/24 06:17:02;;;;;;;2.57;2.37;;;14.00;85.60;;;;;;4997418;28;20476;-75
2023/10/24 06:19:31;;;;;;;2.77;2.57;;;13.90;85.30;;;;;;4997334;28;20452;-74
2023/10/24 06:21:58;;;;;;;3.00;2.47;;;13.90;85.80;;;;;;4997083;28;20502;-75
2023/10/24 06:24:25;;;;;;;3.00;2.70;;;14.00;85.30;;;;;;4997151;28;20449;-75
2023/10/24 06:26:51;;;;;;;3.33;2.50;;;14.00;85.30;;;;;;4997013;28;20443;-74
2023/10/24 06:29:18;;;;;;;2.20;2.00;;;14.10;85.20;;;;;;4996643;28;20452;-74
2023/10/24 06:31:44;;;;;;;2.57;2.37;;;14.10;85.10;;;;;;4996605;28;20457;-74
2023/10/24 06:34:11;;;;;;;2.53;2.33;;;14.10;85.20;;;;;;4996873;28;20457;-74
2023/10/24 06:36:39;;;;;;;2.67;2.30;;;14.00;85.20;;;;;;4996863;28;21012;-74
2023/10/24 06:39:07;;;;;;;3.67;2.27;;;14.10;85.20;;;;;;4997104;28;20860;-74
2023/10/24 06:41:34;;;;;;;2.20;1.50;;;14.20;84.90;;;;;;4997042;28;20469;-75
2023/10/24 06:44:00;;;;;;;2.73;1.87;;;14.20;84.70;;;;;;4996819;28;20445;-75
2023/10/24 06:46:27;;;;;;;1.93;1.53;;;14.30;84.70;;;;;;4996717;28;20449;-74
2023/10/24 06:48:54;;;;;;;2.30;1.50;;;14.30;84.60;;;;;;4996434;28;20927;-74
2023/10/24 06:51:21;;;;;;;2.17;1.40;;;14.30;84.60;;;;;;4996064;28;20854;-74
2023/10/24 06:53:49;;;;;;;2.77;1.37;;;14.40;84.70;;;;;;4996342;28;20449;-74
2023/10/24 06:56:15;;;;;;;1.70;1.33;;;14.40;84.70;;;;;;4995305;28;20473;-74
2023/10/24 06:58:42;;;;;;;2.90;1.83;;;14.40;85.00;;;;;;4996557;28;20441;-74
2023/10/24 07:01:09;;;;;;;1.93;1.50;;;14.50;84.90;;;;;;4996359;28;20488;-74
2023/10/24 07:03:36;;;;;;;2.23;1.43;;;14.50;84.90;;;;;;4996977;28;20438;-74
2023/10/24 07:06:03;;;;;;;2.90;1.33;;;14.60;84.70;;;;;;4997027;28;20441;-74
2023/10/24 07:08:30;;;;;;;2.30;1.60;;;14.70;84.70;;;;;;4996876;28;20516;-75
2023/10/24 07:10:58;;;;;;;1.80;1.47;;;14.70;84.70;;;;;;4996493;28;20461;-74
2023/10/24 07:13:25;;;;;;;2.10;1.90;;;14.70;84.70;;;;;;4996209;28;20453;-72
2023/10/24 07:15:51;;;;;;;2.50;1.87;;;14.70;84.70;;;;;;4995975;28;20480;-72
2023/10/24 07:18:18;;;;;;;2.27;1.53;;;14.70;84.50;;;;;;4995825;28;20441;-72
2023/10/24 07:20:45;;;;;;;2.00;1.60;;;14.80;84.60;;;;;;4995815;28;20843;-71
2023/10/24 07:23:11;;;;;;;2.97;1.60;;;14.80;84.60;;;;;;4995699;28;20820;-72
2023/10/24 07:25:38;;;;;;;2.33;1.90;;;14.80;84.60;;;;;;4995958;28;20444;-72
2023/10/24 07:28:06;;;;;;;1.47;1.20;;;14.80;84.50;;;;;;4995804;28;20942;-72
2023/10/24 07:30:33;;;;;;;1.83;1.53;;;14.80;84.70;;;;;;4996000;28;20496;-74
2023/10/24 07:32:59;;;;;;;2.00;1.70;;;14.80;84.80;;;;;;4996187;28;20500;-73
2023/10/24 07:35:26;;;;;;;2.53;1.67;;;14.80;84.90;;;;;;4995916;28;20448;-73
2023/10/24 07:37:53;;;;;;;2.33;2.13;;;14.80;85.30;;;;;;4995812;28;20445;-73
2023/10/24 07:40:20;;;;;;;2.63;2.33;;;14.80;85.40;;;;;;4995994;28;20452;-73
2023/10/24 07:42:46;;;;;;;2.40;1.83;;;14.80;85.40;;;;;;4995463;28;20453;-73
2023/10/24 07:45:14;;;;;;;2.17;1.97;;;14.80;85.40;;;;;;4995394;28;20445;-73
2023/10/24 07:47:41;;;;;;;2.13;1.37;;;14.80;85.70;;;;;;4995619;28;20441;-73
2023/10/24 07:50:10;;;;;;;1.80;1.50;;;14.80;85.50;;;;;;4995704;28;20449;-73
2023/10/24 07:52:36;;;;;;;1.90;1.40;;;14.80;85.40;;;;;;4995231;28;20977;-73
2023/10/24 07:55:03;;;;;;;2.50;1.70;;;14.80;85.20;;;;;;4995495;28;20456;-73
2023/10/24 07:57:31;;;;;;;2.03;1.50;;;14.80;85.30;;;;;;4995261;28;20481;-73
2023/10/24 07:59:58;;;;;;;2.20;1.70;;;14.90;85.40;;;;;;4995359;28;20515;-73
2023/10/24 08:02:26;;;;;;;1.77;1.40;;;14.90;85.40;;;;;;4994717;28;20885;-73
2023/10/24 08:04:52;;;;;;;3.23;1.60;;;14.90;85.30;;;;;;4995082;28;20453;-73
2023/10/24 08:07:19;;;;;;;1.80;1.40;;;14.90;85.40;;;;;;4994657;28;20444;-73
2023/10/24 08:09:46;;;;;;;3.07;1.67;;;14.90;85.50;;;;;;4995074;28;20476;-73
2023/10/24 08:12:12;;;;;;;4.20;2.20;;;14.90;85.50;;;;;;4994906;28;20473;-73
2023/10/24 08:14:39;;;;;;;3.67;2.10;;;15.00;85.60;;;;;;4994998;28;20499;-73
2023/10/24 08:17:06;;;;;;;2.27;2.03;;;15.00;85.80;;;;;;4994867;28;20481;-73
2023/10/24 08:19:34;;;;;;;2.00;1.57;;;15.00;85.70;;;;;;4994929;28;20441;-73
2023/10/24 08:22:00;;;;;;;1.90;1.70;;;15.00;85.90;;;;;;4994946;28;20881;-73
2023/10/24 08:24:27;;;;;;;2.20;1.10;;;15.00;86.10;;;;;;4994969;28;20452;-73
2023/10/24 08:26:54;;;;;;;3.13;1.30;;;15.00;86.30;;;;;;4995078;28;20492;-73
2023/10/24 08:29:20;;;;;;;1.93;1.10;;;15.00;86.40;;;;;;4995280;28;20456;-73
2023/10/24 08:31:48;;;;;;;1.97;1.10;;;14.90;86.80;;;;;;4995475;28;20469;-73
2023/10/24 08:34:14;;;;;;;1.40;1.00;;;14.90;86.90;;;;;;4995296;28;20454;-73
2023/10/24 08:36:43;;;;;;;1.53;1.10;;;14.90;87.40;;;;;;4995772;28;20477;-73
2023/10/24 08:39:10;;;;;;;2.27;1.20;;;14.90;87.20;;;;;;4995605;28;20458;-73
2023/10/24 08:41:37;;;;;;;3.53;2.00;;;14.90;87.30;;;;;;4995337;28;20527;-73
2023/10/24 08:44:05;;;;;;;1.70;1.40;;;14.80;87.70;;;;;;4995354;28;20524;-73
2023/10/24 08:46:33;;;;;;;3.10;1.50;;;14.80;87.70;;;;;;4995265;28;20935;-73
2023/10/24 08:49:02;;;;;;;1.40;1.17;;;14.80;87.60;;;;;;4995398;28;20814;-73
2023/10/24 08:51:29;;;;;;;1.87;1.50;;;14.80;88.00;;;;;;4995508;28;20491;-73
2023/10/24 08:53:57;;;;;;;1.60;1.37;;;14.80;87.80;;;;;;5009516;28;20441;-73
2023/10/24 08:56:25;;;;;;;3.20;1.63;;;14.80;87.90;;;;;;5015896;28;20840;-73
2023/10/24 08:58:54;;;;;;;2.60;1.73;;;14.90;87.70;;;;;;4998641;28;20931;-73
2023/10/24 09:01:21;;;;;;;2.00;1.60;;;14.90;87.60;;;;;;4997575;28;20864;-73
2023/10/24 09:03:48;;;;;;;1.70;1.20;;;14.80;87.80;;;;;;4998092;28;20868;-73
2023/10/24 09:06:16;;;;;;;2.40;1.80;;;14.60;89.20;;;;;;4998626;28;20860;-74
2023/10/24 09:08:42;;;;;;;2.63;2.13;;;14.70;88.90;;;;;;4998298;28;20441;-73
2023/10/24 09:11:10;;;;;;;2.83;1.63;;;14.80;88.80;;;;;;4997829;28;20465;-74
2023/10/24 09:13:37;;;;;;;3.07;1.43;;;14.80;88.80;;;;;;4997703;28;20445;-73
2023/10/24 09:16:08;;;;;;;2.40;1.60;;;14.80;88.80;;;;;;4997726;28;20449;-73
2023/10/24 09:18:36;;;;;;;2.20;1.23;;;14.80;88.80;;;;;;4996665;28;20444;-73
2023/10/24 09:21:04;;;;;;;2.20;1.27;;;14.70;89.20;;;;;;4996715;28;20466;-73
2023/10/24 09:23:31;;;;;;;1.73;1.40;;;14.80;89.30;;;;;;4996874;28;20449;-73
2023/10/24 09:26:01;;;;;;;1.70;1.33;;;14.90;89.00;;;;;;4996786;28;20989;-73
2023/10/24 09:28:30;;;;;;;2.37;1.57;;;15.00;88.60;;;;;;4995652;28;20441;-73
2023/10/24 09:30:57;;;;;;;2.27;1.80;;;15.00;88.20;;;;;;4993764;28;20465;-73
2023/10/24 09:33:26;;;;;;;2.87;2.23;;;14.80;89.10;;;;;;4993587;28;21009;-72
2023/10/24 09:35:53;;;;;;;2.80;2.30;;;14.70;89.90;;;;;;4993526;28;20484;-73
2023/10/24 09:38:21;;;;;;;2.20;1.63;;;14.80;89.70;;;;;;4993824;28;20460;-73
2023/10/24 09:40:48;;;;;;;2.30;1.90;;;14.40;90.30;;;;;;4993788;28;20496;-73
2023/10/24 09:43:20;;;;;;;1.70;1.60;;;14.50;91.40;;;;;;4993746;28;20472;-72
2023/10/24 09:45:48;;;;;;;2.00;1.80;;;14.70;90.50;;;;;;4994077;28;20437;-72
2023/10/24 09:48:17;;;;;;;1.90;1.70;;;14.80;90.00;;;;;;4993775;28;20474;-72
2023/10/24 09:50:44;;;;;;;1.70;1.57;;;14.80;90.30;;;;;;4993378;28;21031;-73
2023/10/24 09:53:12;;;;;;;1.90;1.47;;;14.90;90.00;;;;;;4993716;28;20446;-73
2023/10/24 09:55:41;;;;;;;3.50;1.50;;;15.00;89.30;;;;;;4993469;28;20453;-73
2023/10/24 09:58:09;;;;;;;2.43;1.70;;;14.90;89.40;;;;;;4993572;28;20512;-72
2023/10/24 10:00:36;;;;;;;1.63;1.30;;;15.00;89.70;;;;;;4993475;28;20473;-73
2023/10/24 10:03:05;;;;;;;2.20;1.33;;;14.90;89.50;;;;;;4993555;28;20449;-72
2023/10/24 10:05:32;;;;;;;2.30;1.13;;;14.80;89.90;;;;;;4993611;28;20475;-72
2023/10/24 10:08:02;;;;;;;1.93;1.23;;;14.70;90.60;;;;;;4993576;28;20565;-73
2023/10/24 10:10:31;;;;;;;1.80;1.23;;;14.80;91.00;;;;;;4993473;28;20437;-73
2023/10/24 10:13:03;;;;;;;1.60;1.00;;;14.90;90.50;;;;;;4993511;28;20537;-72
2023/10/24 10:15:52;;;;;;;2.30;1.43;;;15.00;90.30;;;;;;5015861;23;20872;-74
2023/10/24 10:18:33;;;;;;;2.27;1.10;;;15.00;90.10;;;;;;4993302;28;21005;-75
2023/10/24 10:21:09;;;;;;;2.60;1.20;;;15.10;90.20;;;;;;4993545;28;20437;-76
2023/10/24 10:24:02;;;;;;;1.73;1.07;;;15.10;89.80;;;;;;4993446;28;20492;-76
2023/10/24 10:26:57;;;;;;;1.80;1.00;;;15.20;89.70;;;;;;4993272;28;20468;-76
2023/10/24 10:29:33;;;;;;;1.97;1.30;;;15.20;89.60;;;;;;4994421;28;20445;-75
2023/10/24 10:32:29;;;;;;;1.60;1.40;;;15.30;89.50;;;;;;4996540;28;20937;-75
2023/10/24 10:34:58;;;;;;;1.50;1.20;;;15.20;89.70;;;;;;4996673;28;20469;-76
2023/10/24 10:37:30;;;;;;;1.77;1.20;;;15.20;89.60;;;;;;4996292;28;20516;-74
2023/10/24 10:40:26;;;;;;;2.73;1.20;;;15.10;89.90;;;;;;4996759;28;20434;-76
2023/10/24 10:42:53;;;;;;;1.40;1.03;;;15.00;90.40;;;;;;4995594;28;20958;-75
2023/10/24 10:45:25;;;;;;;2.20;1.20;;;14.90;90.60;;;;;;4996535;28;20457;-74
2023/10/24 10:47:52;;;;;;;1.90;1.20;;;14.70;91.10;;;;;;4996175;28;20848;-75
2023/10/24 10:50:24;;;;;;;1.80;1.30;;;14.60;91.50;;;;;;4996454;28;20437;-75
2023/10/24 10:52:57;;;;;;;1.70;1.40;;;14.60;91.40;;;;;;4997310;28;20524;-75
2023/10/24 10:55:38;;;;;;;1.77;1.43;;;14.70;91.40;;;;;;4996348;28;20816;-76
2023/10/24 10:58:21;;;;;;;1.70;1.40;;;14.80;91.80;;;;;;4996269;28;20527;-76
2023/10/24 11:01:00;;;;;;;1.97;1.40;;;14.80;91.20;;;;;;4996344;28;20425;-75
2023/10/24 11:03:38;;;;;;;2.90;1.37;;;14.80;91.40;;;;;;4996417;28;20476;-75
2023/10/24 11:06:16;;;;;;;2.47;1.30;;;14.80;91.10;;;;;;4996118;28;20460;-76
2023/10/24 11:08:48;;;;;;;2.00;1.33;;;14.90;91.10;;;;;;4996197;28;20417;-76
2023/10/24 11:11:20;;;;;;;1.67;1.10;;;14.90;90.80;;;;;;4996159;28;20437;-76
2023/10/24 11:13:48;;;;;;;2.00;1.10;;;15.00;90.80;;;;;;4996096;28;20433;-75
2023/10/24 11:16:16;;;;;;;1.60;1.40;;;14.90;90.50;;;;;;4995544;28;20477;-75
2023/10/24 11:18:42;;;;;;;1.60;1.37;;;14.70;91.00;;;;;;4995917;28;20480;-75
2023/10/24 11:21:12;;;;;;;1.50;1.30;;;14.60;91.40;;;;;;4995922;28;20454;-75
2023/10/24 11:23:42;;;;;;;1.70;1.20;;;14.60;91.90;;;;;;4995889;28;20445;-76
2023/10/24 11:26:09;;;;;;;1.47;1.17;;;14.60;91.50;;;;;;4995449;28;20844;-75
2023/10/24 11:28:36;;;;;;;1.60;1.33;;;14.50;92.10;;;;;;4995790;28;20496;-75
2023/10/24 11:31:21;;;;;;;1.67;1.20;;;14.50;92.50;;;;;;4995765;28;20446;-74
2023/10/24 11:33:48;;;;;;;1.40;1.00;;;14.40;92.50;;;;;;4995786;28;20430;-75
2023/10/24 11:36:15;;;;;;;1.67;1.30;;;14.40;92.50;;;;;;4995275;28;20821;-75
2023/10/24 11:38:43;;;;;;;1.83;1.60;;;14.50;92.60;;;;;;4995583;28;20578;-75
2023/10/24 11:41:10;;;;;;;1.43;1.20;;;14.50;92.40;;;;;;4994790;28;20456;-75
2023/10/24 11:43:36;;;;;;;1.70;1.00;;;14.50;92.60;;;;;;4995529;28;20453;-75
2023/10/24 11:46:03;;;;;;;1.50;1.13;;;14.60;91.80;;;;;;4995405;28;20465;-75
2023/10/24 11:48:30;;;;;;;1.90;1.20;;;14.70;91.90;;;;;;4995418;28;20445;-76
2023/10/24 11:51:01;;;;;;;6.13;1.23;;;14.70;91.40;;;;;;4995378;28;20441;-75
2023/10/24 11:53:28;;;;;;;1.43;1.03;;;14.80;91.80;;;;;;4995390;28;20421;-75
2023/10/24 11:55:56;;;;;;;1.70;1.03;;;14.90;91.60;;;;;;4994864;28;20823;-76
2023/10/24 11:58:30;;;;;;;1.60;1.10;;;15.00;90.90;;;;;;4995139;28;20533;-75
2023/10/24 12:00:58;;;;;;;1.80;1.00;;;15.00;90.80;;;;;;4995293;28;20437;-74
2023/10/24 12:03:25;;;;;;;1.60;1.10;;;15.10;90.40;;;;;;4995293;28;20453;-74
2023/10/24 12:05:52;;;;;;;1.40;1.10;;;15.20;90.30;;;;;;4995206;28;20854;-75
2023/10/24 12:08:23;;;;;;;2.37;1.10;;;15.20;89.90;;;;;;4994912;28;20809;-75
2023/10/24 12:10:54;;;;;;;1.50;1.10;;;15.20;89.90;;;;;;4995038;28;20422;-74
2023/10/24 12:13:23;;;;;;;1.93;1.10;;;15.20;89.50;;;;;;4994942;28;20441;-75
2023/10/24 12:15:50;;;;;;;1.50;1.20;;;15.20;89.80;;;;;;4994524;28;20477;-76
2023/10/24 12:18:17;;;;;;;1.60;1.13;;;15.30;90.00;;;;;;4994444;28;20531;-75
2023/10/24 12:20:44;;;;;;;2.73;1.27;;;15.20;89.60;;;;;;4994848;28;20445;-75
2023/10/24 12:23:10;;;;;;;1.27;0.93;;;15.20;89.80;;;;;;4994797;28;20816;-75
2023/10/24 12:25:37;;;;;;;1.77;1.10;;;15.20;89.50;;;;;;4994637;28;20472;-75
2023/10/24 12:28:04;;;;;;;1.70;1.20;;;15.20;89.60;;;;;;4994676;28;20433;-75
2023/10/24 12:30:32;;;;;;;1.70;1.10;;;15.00;90.20;;;;;;4994576;28;20456;-75
2023/10/24 12:32:59;;;;;;;1.60;1.20;;;15.00;90.60;;;;;;4994340;28;20950;-75
2023/10/24 12:35:26;;;;;;;1.87;1.13;;;15.00;91.10;;;;;;4994629;28;20472;-75
2023/10/24 12:37:53;;;;;;;2.17;1.30;;;14.90;90.40;;;;;;4994408;28;20488;-75
2023/10/24 12:40:20;;;;;;;2.33;1.10;;;14.90;90.80;;;;;;4994432;28;20445;-75
2023/10/24 12:42:46;;;;;;;1.50;1.40;;;14.80;91.00;;;;;;4994415;28;20452;-75
2023/10/24 12:45:13;;;;;;;1.60;1.13;;;14.60;91.90;;;;;;4994276;28;20465;-76
2023/10/24 12:47:41;;;;;;;1.60;1.30;;;14.80;92.20;;;;;;4994337;28;20437;-75
2023/10/24 12:50:08;;;;;;;1.70;1.37;;;14.70;91.70;;;;;;4993982;28;20449;-75
2023/10/24 12:52:35;;;;;;;1.50;1.20;;;14.80;92.50;;;;;;4994222;28;20477;-75
2023/10/24 12:55:02;;;;;;;1.63;1.10;;;14.90;91.70;;;;;;4994150;28;20469;-75
2023/10/24 12:57:28;;;;;;;1.60;1.10;;;14.90;91.50;;;;;;4994116;28;20488;-75
2023/10/24 12:59:55;;;;;;;2.30;1.20;;;14.90;91.80;;;;;;4994188;28;20500;-75
2023/10/24 13:02:22;;;;;;;1.40;1.13;;;15.00;90.90;;;;;;4993815;28;20445;-75
2023/10/24 13:04:50;;;;;;;1.90;1.00;;;15.00;90.90;;;;;;4993993;28;20472;-76
2023/10/24 13:07:17;;;;;;;1.70;1.10;;;14.90;91.20;;;;;;4993890;28;20942;-75
2023/10/24 13:09:44;;;;;;;1.73;1.17;;;14.80;91.60;;;;;;4994031;28;20449;-75
2023/10/24 13:12:11;;;;;;;1.93;1.40;;;14.70;91.90;;;;;;4993990;28;20449;-76
2023/10/24 13:14:38;;;;;;;1.57;1.17;;;14.90;91.60;;;;;;4993765;28;20453;-75
2023/10/24 13:17:05;;;;;;;5.87;1.70;;;14.90;91.10;;;;;;4993888;28;20421;-75
2023/10/24 13:19:32;;;;;;;1.47;1.13;;;14.70;91.80;;;;;;4993936;28;20480;-76
2023/10/24 13:22:00;;;;;;;2.83;1.10;;;14.80;91.70;;;;;;4993948;28;20450;-75
2023/10/24 13:24:27;;;;;;;1.57;1.20;;;14.80;91.20;;;;;;4993918;28;20880;-75
2023/10/24 13:26:54;;;;;;;1.80;1.20;;;14.70;92.00;;;;;;4993819;28;20470;-75
2023/10/24 13:29:21;;;;;;;1.40;1.20;;;14.60;91.50;;;;;;4993538;28;20938;-75
2023/10/24 13:31:48;;;;;;;1.67;1.20;;;14.60;92.90;;;;;;4993837;28;20451;-75
2023/10/24 13:34:16;;;;;;;1.33;1.10;;;14.60;91.80;;;;;;4993799;28;20453;-75
2023/10/24 13:36:43;;;;;;;1.30;1.00;;;14.50;92.50;;;;;;4993733;28;20817;-75
2023/10/24 13:39:11;;;;;;;1.50;1.00;;;14.50;92.70;;;;;;4993361;28;20485;-76
2023/10/24 13:41:38;;;;;;;1.50;0.90;;;14.60;92.50;;;;;;4993730;28;20468;-75
2023/10/24 13:44:06;;;;;;;1.70;1.30;;;14.70;91.60;;;;;;4993728;28;20437;-75
2023/10/24 13:46:33;;;;;;;1.77;1.10;;;14.60;92.00;;;;;;4993836;28;20492;-75
2023/10/24 13:49:00;;;;;;;1.83;1.30;;;14.70;92.00;;;;;;4993931;28;20503;-75
2023/10/24 13:51:27;;;;;;;1.70;0.93;;;14.70;92.20;;;;;;4993855;28;20448;-75
2023/10/24 13:53:54;;;;;;;1.83;1.40;;;14.80;92.00;;;;;;4993632;28;20488;-75
2023/10/24 13:56:22;;;;;;;2.97;1.30;;;14.80;91.70;;;;;;4993222;28;20893;-75
2023/10/24 13:58:49;;;;;;;2.20;1.27;;;14.90;91.60;;;;;;4993179;28;21021;-75
2023/10/24 14:01:15;;;;;;;3.60;1.60;;;15.00;91.50;;;;;;4993507;28;20445;-75
2023/10/24 14:03:42;;;;;;;1.50;1.00;;;15.00;91.30;;;;;;4993659;28;20454;-75
2023/10/24 14:06:09;;;;;;;1.63;1.20;;;15.00;90.80;;;;;;4997199;28;20472;-76
2023/10/24 14:08:36;;;;;;;1.40;1.00;;;14.90;90.90;;;;;;4997166;28;20441;-75
2023/10/24 14:11:02;;;;;;;1.57;1.10;;;14.90;91.00;;;;;;4997159;28;20448;-75
2023/10/24 14:13:31;;;;;;;1.50;0.90;;;14.80;91.30;;;;;;4997145;28;20437;-75
2023/10/24 14:15:57;;;;;;;1.60;1.20;;;14.60;91.30;;;;;;4996721;28;20508;-75
2023/10/24 14:18:24;;;;;;;1.30;0.93;;;14.70;91.50;;;;;;4996970;28;20492;-75
2023/10/24 14:20:51;;;;;;;1.60;1.10;;;14.60;91.90;;;;;;4997013;28;20441;-74
2023/10/24 14:23:17;;;;;;;1.43;1.17;;;14.70;92.50;;;;;;4996665;28;20942;-75
2023/10/24 14:25:44;;;;;;;1.30;0.83;;;14.80;92.10;;;;;;4996826;28;20491;-75
2023/10/24 14:28:11;;;;;;;1.60;1.00;;;14.70;91.30;;;;;;4996890;28;20441;-74
2023/10/24 14:30:39;;;;;;;1.63;1.00;;;14.70;91.60;;;;;;4996994;28;20449;-75
2023/10/24 14:33:05;;;;;;;1.47;0.87;;;14.70;91.20;;;;;;4996818;28;20456;-75
2023/10/24 14:35:32;;;;;;;2.00;1.40;;;14.50;91.30;;;;;;4996686;28;20469;-75
2023/10/24 14:37:59;;;;;;;1.37;0.80;;;14.60;91.60;;;;;;4996308;28;21020;-75
2023/10/24 14:40:25;;;;;;;1.40;1.10;;;14.60;91.70;;;;;;4996436;28;20444;-75
2023/10/24 14:42:52;;;;;;;1.87;1.10;;;14.70;91.90;;;;;;4996317;28;20940;-75
2023/10/24 14:45:20;;;;;;;1.40;1.10;;;14.60;91.40;;;;;;4996172;28;20839;-75
2023/10/24 14:47:48;;;;;;;1.60;1.00;;;14.60;91.40;;;;;;4996536;28;20448;-75
2023/10/24 14:50:14;;;;;;;1.50;1.07;;;14.60;91.50;;;;;;4996512;28;20457;-75
2023/10/24 14:52:41;;;;;;;1.30;0.90;;;14.50;91.40;;;;;;4996513;28;20449;-74
2023/10/24 14:55:08;;;;;;;1.40;0.90;;;14.40;91.30;;;;;;4996344;28;20897;-75
2023/10/24 14:57:35;;;;;;;1.30;0.80;;;14.40;91.20;;;;;;4996002;28;20453;-75
2023/10/24 15:00:02;;;;;;;1.30;0.80;;;14.40;91.50;;;;;;4996335;28;20490;-75
2023/10/24 15:02:28;;;;;;;1.33;0.80;;;14.50;91.70;;;;;;4996280;28;20445;-75
2023/10/24 15:04:56;;;;;;;1.30;0.90;;;14.50;91.20;;;;;;4995811;28;20817;-75
2023/10/24 15:07:23;;;;;;;1.40;0.90;;;14.50;91.00;;;;;;4996183;28;20449;-75
2023/10/24 15:09:50;;;;;;;1.87;0.90;;;14.40;91.20;;;;;;4996098;28;20464;-75
2023/10/24 15:12:16;;;;;;;1.37;0.87;;;14.40;91.20;;;;;;4996148;28;20449;-75
2023/10/24 15:14:43;;;;;;;2.20;1.10;;;14.40;91.20;;;;;;4995856;28;20452;-75
2023/10/24 15:17:10;;;;;;;1.60;0.90;;;14.30;90.80;;;;;;4995495;28;20453;-74
2023/10/24 15:19:37;;;;;;;1.67;0.90;;;14.20;91.70;;;;;;4995900;28;20571;-75
2023/10/24 15:22:05;;;;;;;1.40;1.00;;;14.30;92.00;;;;;;4995598;28;20943;-75
2023/10/24 15:24:32;;;;;;;1.50;0.90;;;14.20;91.90;;;;;;4995478;28;20914;-76
2023/10/24 15:26:59;;;;;;;1.60;1.30;;;14.20;92.20;;;;;;4995814;28;20456;-74
2023/10/24 15:29:28;;;;;;;1.50;1.13;;;14.20;92.20;;;;;;4995892;28;20444;-75
2023/10/24 15:31:54;;;;;;;1.50;1.00;;;14.20;92.30;;;;;;4996093;28;20968;-75
2023/10/24 15:34:21;;;;;;;1.40;1.00;;;14.30;92.30;;;;;;4995901;28;20452;-74
2023/10/24 15:36:49;;;;;;;1.40;0.93;;;14.30;92.00;;;;;;4995562;28;20480;-74
2023/10/24 15:39:17;;;;;;;1.90;1.00;;;14.40;91.80;;;;;;4995510;28;20485;-74
2023/10/24 15:41:44;;;;;;;2.00;1.20;;;14.40;91.80;;;;;;4995542;28;20491;-74
2023/10/24 15:44:11;;;;;;;1.70;1.00;;;14.50;91.60;;;;;;4995552;28;20483;-73
2023/10/24 15:46:41;;;;;;;2.63;1.87;;;14.40;91.40;;;;;;4995382;28;20472;-74
2023/10/24 15:49:08;;;;;;;1.50;0.90;;;14.30;91.80;;;;;;4995411;28;20452;-74
2023/10/24 15:51:35;;;;;;;1.77;1.50;;;14.20;91.90;;;;;;4995359;28;20441;-76
2023/10/24 15:54:02;;;;;;;1.50;1.10;;;14.30;92.10;;;;;;4994966;28;20472;-74
2023/10/24 15:56:30;;;;;;;1.40;1.00;;;14.30;91.90;;;;;;4995354;28;20456;-73
2023/10/24 15:58:57;;;;;;;1.60;1.10;;;14.30;91.60;;;;;;4995246;28;20492;-74
2023/10/24 16:01:25;;;;;;;1.50;1.20;;;14.30;91.80;;;;;;4995468;28;20445;-73
2023/10/24 16:03:52;;;;;;;1.73;1.20;;;14.30;91.70;;;;;;4995217;28;20476;-74
2023/10/24 16:06:19;;;;;;;2.00;1.13;;;14.10;91.90;;;;;;4995038;28;20466;-75
2023/10/24 16:08:46;;;;;;;1.60;1.23;;;14.10;92.20;;;;;;4994973;28;20472;-72
2023/10/24 16:11:13;;;;;;;1.47;1.00;;;14.10;92.30;;;;;;4995081;28;20449;-74
2023/10/24 16:13:41;;;;;;;2.70;1.07;;;14.10;92.40;;;;;;4994801;28;20445;-73
2023/10/24 16:16:07;;;;;;;1.57;1.20;;;14.10;92.10;;;;;;5017632;23;20489;-74
2023/10/24 16:18:34;;;;;;;1.83;1.40;;;14.20;92.30;;;;;;4996467;28;20493;-74
2023/10/24 16:21:02;;;;;;;4.50;2.30;;;14.20;91.90;;;;;;4995736;28;20441;-75
2023/10/24 16:23:29;;;;;;;2.13;1.00;;;14.10;91.80;;;;;;4994749;28;20485;-76
2023/10/24 16:26:02;;;;;;;2.53;1.10;;;14.10;91.80;;;;;;4994524;28;20497;-78
2023/10/24 16:28:29;;;;;;;1.43;1.03;;;14.10;92.10;;;;;;4994335;28;20448;-78
2023/10/24 16:30:57;;;;;;;1.60;1.10;;;14.10;91.60;;;;;;4994750;28;20449;-77
2023/10/24 16:33:24;;;;;;;1.30;0.90;;;14.10;91.60;;;;;;4994601;28;20472;-77
2023/10/24 16:35:52;;;;;;;1.37;1.03;;;14.10;91.10;;;;;;4994669;28;20464;-76
2023/10/24 16:38:19;;;;;;;1.40;0.90;;;14.20;91.20;;;;;;4995057;28;20449;-76
2023/10/24 16:40:45;;;;;;;1.40;1.07;;;14.20;91.00;;;;;;4995410;28;20815;-75
2023/10/24 16:43:12;;;;;;;1.57;0.90;;;14.20;90.80;;;;;;4994627;28;20800;-75
2023/10/24 16:45:39;;;;;;;1.40;0.90;;;14.30;91.00;;;;;;4995047;28;20469;-73
2023/10/24 16:48:07;;;;;;;1.80;0.90;;;14.20;90.50;;;;;;4994574;28;20453;-74
2023/10/24 16:50:36;;;;;;;1.50;0.90;;;14.30;91.00;;;;;;4994667;28;20445;-76
2023/10/24 16:53:04;;;;;;;1.20;0.80;;;14.30;90.60;;;;;;4994417;28;20819;-74